sensor_id;sensor_type;location;lat;lon;timestamp;pressure;altitude;pressure_sealevel;temperature
71463;BMP180;59266;52.608;13.260;2023-05-02T00:02:23;100951.00;;;11.40
71463;BMP180;59266;52.608;13.260;2023-05-02T00:04:50;100948.00;;;11.30
71463;BMP180;59266;52.608;13.260;2023-05-02T00:07:17;100934.00;;;11.00
71463;BMP180;59266;52.608;13.260;2023-05-02T00:09:44;100948.00;;;11.10
71463;BMP180;59266;52.608;13.260;2023-05-02T00:12:11;100942.00;;;11.00
71463;BMP180;59266;52.608;13.260;2023-05-02T00:14:37;100941.00;;;11.00
71463;BMP180;59266;52.608;13.260;2023-05-02T00:17:04;100939.00;;;11.00
71463;BMP180;59266;52.608;13.260;2023-05-02T00:19:36;100944.00;;;11.00
71463;BMP180;59266;52.608;13.260;2023-05-02T00:22:05;100946.00;;;10.90
71463;BMP180;59266;52.608;13.260;2023-05-02T00:24:34;100937.00;;;10.80
71463;BMP180;59266;52.608;13.260;2023-05-02T00:27:01;100939.00;;;10.70
71463;BMP180;59266;52.608;13.260;2023-05-02T00:29:27;100935.00;;;10.70
71463;BMP180;59266;52.608;13.260;2023-05-02T00:31:55;100935.00;;;10.60
71463;BMP180;59266;52.608;13.260;2023-05-02T00:34:29;100931.00;;;10.50
71463;BMP180;59266;52.608;13.260;2023-05-02T00:36:57;100933.00;;;10.50
71463;BMP180;59266;52.608;13.260;2023-05-02T00:39:23;100934.00;;;10.40
71463;BMP180;59266;52.608;13.260;2023-05-02T00:41:57;100931.00;;;10.40
71463;BMP180;59266;52.608;13.260;2023-05-02T00:44:24;100940.00;;;10.30
71463;BMP180;59266;52.608;13.260;2023-05-02T00:46:51;100933.00;;;10.30
71463;BMP180;59266;52.608;13.260;2023-05-02T00:49:18;100939.00;;;10.20
71463;BMP180;59266;52.608;13.260;2023-05-02T00:51:45;100932.00;;;10.10
71463;BMP180;59266;52.608;13.260;2023-05-02T00:54:12;100936.00;;;10.20
71463;BMP180;59266;52.608;13.260;2023-05-02T00:56:39;100936.00;;;10.10
71463;BMP180;59266;52.608;13.260;2023-05-02T00:59:07;100935.00;;;10.10
71463;BMP180;59266;52.608;13.260;2023-05-02T01:10:18;100942.00;;;10.20
71463;BMP180;59266;52.608;13.260;2023-05-02T01:13:11;100939.00;;;10.20
71463;BMP180;59266;52.608;13.260;2023-05-02T01:15:40;100941.00;;;10.40
71463;BMP180;59266;52.608;13.260;2023-05-02T01:18:09;100945.00;;;10.50
71463;BMP180;59266;52.608;13.260;2023-05-02T01:20:39;100949.00;;;10.50
71463;BMP180;59266;52.608;13.260;2023-05-02T01:23:16;100947.00;;;10.60
71463;BMP180;59266;52.608;13.260;2023-05-02T01:26:04;100950.00;;;10.60
71463;BMP180;59266;52.608;13.260;2023-05-02T01:28:57;100949.00;;;10.60
71463;BMP180;59266;52.608;13.260;2023-05-02T01:31:25;100953.00;;;10.60
71463;BMP180;59266;52.608;13.260;2023-05-02T01:33:55;100956.00;;;10.50
71463;BMP180;59266;52.608;13.260;2023-05-02T01:36:31;100963.00;;;10.40
71463;BMP180;59266;52.608;13.260;2023-05-02T01:39:00;100962.00;;;10.30
71463;BMP180;59266;52.608;13.260;2023-05-02T01:41:32;100963.00;;;10.20
71463;BMP180;59266;52.608;13.260;2023-05-02T01:44:01;100960.00;;;10.20
71463;BMP180;59266;52.608;13.260;2023-05-02T01:46:37;100967.00;;;10.10
71463;BMP180;59266;52.608;13.260;2023-05-02T01:49:06;100967.00;;;10.10
71463;BMP180;59266;52.608;13.260;2023-05-02T01:51:37;100964.00;;;10.10
71463;BMP180;59266;52.608;13.260;2023-05-02T01:54:07;100969.00;;;9.80
71463;BMP180;59266;52.608;13.260;2023-05-02T01:56:35;100971.00;;;9.80
71463;BMP180;59266;52.608;13.260;2023-05-02T01:59:08;100982.00;;;9.80
71463;BMP180;59266;52.608;13.260;2023-05-02T02:01:39;100989.00;;;9.80
71463;BMP180;59266;52.608;13.260;2023-05-02T02:04:08;100982.00;;;9.70
71463;BMP180;59266;52.608;13.260;2023-05-02T02:06:38;100980.00;;;9.80
71463;BMP180;59266;52.608;13.260;2023-05-02T02:09:06;100985.00;;;9.80
71463;BMP180;59266;52.608;13.260;2023-05-02T02:14:30;100992.00;;;9.60
71463;BMP180;59266;52.608;13.260;2023-05-02T02:17:00;100997.00;;;9.60
71463;BMP180;59266;52.608;13.260;2023-05-02T02:19:29;101000.00;;;9.60
71463;BMP180;59266;52.608;13.260;2023-05-02T02:21:57;101007.00;;;9.50
71463;BMP180;59266;52.608;13.260;2023-05-02T02:24:24;100998.00;;;9.40
71463;BMP180;59266;52.608;13.260;2023-05-02T02:26:52;100999.00;;;9.50
71463;BMP180;59266;52.608;13.260;2023-05-02T02:29:18;101002.00;;;9.40
71463;BMP180;59266;52.608;13.260;2023-05-02T02:31:45;100997.00;;;9.40
71463;BMP180;59266;52.608;13.260;2023-05-02T02:34:12;101008.00;;;9.50
71463;BMP180;59266;52.608;13.260;2023-05-02T02:36:51;100995.00;;;9.50
71463;BMP180;59266;52.608;13.260;2023-05-02T02:39:33;101013.00;;;9.50
71463;BMP180;59266;52.608;13.260;2023-05-02T02:42:26;101000.00;;;9.50
71463;BMP180;59266;52.608;13.260;2023-05-02T02:45:22;101012.00;;;9.50
71463;BMP180;59266;52.608;13.260;2023-05-02T02:48:01;101022.00;;;9.50
71463;BMP180;59266;52.608;13.260;2023-05-02T02:50:41;101028.00;;;9.50
71463;BMP180;59266;52.608;13.260;2023-05-02T02:53:18;101030.00;;;9.50
71463;BMP180;59266;52.608;13.260;2023-05-02T02:58:40;101040.00;;;9.50
71463;BMP180;59266;52.608;13.260;2023-05-02T03:01:13;101035.00;;;9.60
71463;BMP180;59266;52.608;13.260;2023-05-02T03:03:43;101047.00;;;9.60
71463;BMP180;59266;52.608;13.260;2023-05-02T03:06:09;101052.00;;;9.70
71463;BMP180;59266;52.608;13.260;2023-05-02T03:08:41;101055.00;;;9.70
71463;BMP180;59266;52.608;13.260;2023-05-02T03:11:08;101064.00;;;9.70
71463;BMP180;59266;52.608;13.260;2023-05-02T03:13:35;101073.00;;;9.70
71463;BMP180;59266;52.608;13.260;2023-05-02T03:16:23;101070.00;;;9.50
71463;BMP180;59266;52.608;13.260;2023-05-02T03:18:55;101071.00;;;9.60
71463;BMP180;59266;52.608;13.260;2023-05-02T03:21:22;101083.00;;;9.60
71463;BMP180;59266;52.608;13.260;2023-05-02T03:23:48;101081.00;;;9.50
71463;BMP180;59266;52.608;13.260;2023-05-02T03:26:16;101091.00;;;9.50
71463;BMP180;59266;52.608;13.260;2023-05-02T03:28:42;101087.00;;;9.50
71463;BMP180;59266;52.608;13.260;2023-05-02T03:31:13;101083.00;;;9.50
71463;BMP180;59266;52.608;13.260;2023-05-02T03:33:42;101094.00;;;9.50
71463;BMP180;59266;52.608;13.260;2023-05-02T03:36:09;101094.00;;;9.50
71463;BMP180;59266;52.608;13.260;2023-05-02T03:38:36;101106.00;;;9.50
71463;BMP180;59266;52.608;13.260;2023-05-02T03:41:03;101110.00;;;9.30
71463;BMP180;59266;52.608;13.260;2023-05-02T03:43:30;101112.00;;;9.30
71463;BMP180;59266;52.608;13.260;2023-05-02T03:45:56;101117.00;;;9.40
71463;BMP180;59266;52.608;13.260;2023-05-02T03:48:24;101114.00;;;9.40
71463;BMP180;59266;52.608;13.260;2023-05-02T03:50:52;101124.00;;;9.30
71463;BMP180;59266;52.608;13.260;2023-05-02T03:53:19;101120.00;;;9.40
71463;BMP180;59266;52.608;13.260;2023-05-02T03:55:45;101113.00;;;9.30
71463;BMP180;59266;52.608;13.260;2023-05-02T03:58:12;101125.00;;;9.30
71463;BMP180;59266;52.608;13.260;2023-05-02T04:00:39;101123.00;;;9.30
71463;BMP180;59266;52.608;13.260;2023-05-02T04:03:06;101130.00;;;9.30
71463;BMP180;59266;52.608;13.260;2023-05-02T04:05:34;101130.00;;;9.20
71463;BMP180;59266;52.608;13.260;2023-05-02T04:08:01;101136.00;;;9.30
71463;BMP180;59266;52.608;13.260;2023-05-02T04:10:32;101141.00;;;9.30
71463;BMP180;59266;52.608;13.260;2023-05-02T04:12:58;101144.00;;;9.30
71463;BMP180;59266;52.608;13.260;2023-05-02T04:15:34;101143.00;;;9.30
71463;BMP180;59266;52.608;13.260;2023-05-02T04:18:07;101146.00;;;9.40
71463;BMP180;59266;52.608;13.260;2023-05-02T04:20:34;101148.00;;;9.60
71463;BMP180;59266;52.608;13.260;2023-05-02T04:23:01;101147.00;;;9.60
71463;BMP180;59266;52.608;13.260;2023-05-02T04:25:27;101148.00;;;9.60
71463;BMP180;59266;52.608;13.260;2023-05-02T04:27:55;101153.00;;;9.80
71463;BMP180;59266;52.608;13.260;2023-05-02T04:30:21;101162.00;;;9.70
71463;BMP180;59266;52.608;13.260;2023-05-02T04:32:48;101169.00;;;9.80
71463;BMP180;59266;52.608;13.260;2023-05-02T04:35:15;101168.00;;;9.90
71463;BMP180;59266;52.608;13.260;2023-05-02T04:37:42;101177.00;;;9.90
71463;BMP180;59266;52.608;13.260;2023-05-02T04:40:09;101169.00;;;10.00
71463;BMP180;59266;52.608;13.260;2023-05-02T04:42:36;101174.00;;;10.00
71463;BMP180;59266;52.608;13.260;2023-05-02T04:45:05;101180.00;;;10.10
71463;BMP180;59266;52.608;13.260;2023-05-02T04:47:31;101186.00;;;10.10
71463;BMP180;59266;52.608;13.260;2023-05-02T04:49:58;101177.00;;;10.30
71463;BMP180;59266;52.608;13.260;2023-05-02T04:52:26;101180.00;;;10.30
71463;BMP180;59266;52.608;13.260;2023-05-02T04:54:52;101175.00;;;10.50
71463;BMP180;59266;52.608;13.260;2023-05-02T04:57:19;101192.00;;;10.50
71463;BMP180;59266;52.608;13.260;2023-05-02T04:59:48;101193.00;;;10.50
71463;BMP180;59266;52.608;13.260;2023-05-02T05:02:15;101197.00;;;10.70
71463;BMP180;59266;52.608;13.260;2023-05-02T05:04:44;101203.00;;;10.70
71463;BMP180;59266;52.608;13.260;2023-05-02T05:07:12;101199.00;;;10.70
71463;BMP180;59266;52.608;13.260;2023-05-02T05:09:38;101203.00;;;10.80
71463;BMP180;59266;52.608;13.260;2023-05-02T05:12:05;101211.00;;;11.00
71463;BMP180;59266;52.608;13.260;2023-05-02T05:14:33;101209.00;;;10.90
71463;BMP180;59266;52.608;13.260;2023-05-02T05:17:00;101219.00;;;11.00
71463;BMP180;59266;52.608;13.260;2023-05-02T05:19:29;101218.00;;;11.00
71463;BMP180;59266;52.608;13.260;2023-05-02T05:22:04;101225.00;;;11.00
71463;BMP180;59266;52.608;13.260;2023-05-02T05:24:31;101233.00;;;10.90
71463;BMP180;59266;52.608;13.260;2023-05-02T05:26:58;101233.00;;;11.00
71463;BMP180;59266;52.608;13.260;2023-05-02T05:29:25;101220.00;;;11.00
71463;BMP180;59266;52.608;13.260;2023-05-02T05:31:51;101236.00;;;11.20
71463;BMP180;59266;52.608;13.260;2023-05-02T05:34:18;101233.00;;;11.20
71463;BMP180;59266;52.608;13.260;2023-05-02T05:36:47;101238.00;;;11.40
71463;BMP180;59266;52.608;13.260;2023-05-02T05:39:16;101247.00;;;11.60
71463;BMP180;59266;52.608;13.260;2023-05-02T05:41:43;101247.00;;;11.70
71463;BMP180;59266;52.608;13.260;2023-05-02T05:44:10;101255.00;;;11.70
71463;BMP180;59266;52.608;13.260;2023-05-02T05:46:37;101260.00;;;11.90
71463;BMP180;59266;52.608;13.260;2023-05-02T05:49:03;101269.00;;;12.10
71463;BMP180;59266;52.608;13.260;2023-05-02T05:51:34;101261.00;;;12.20
71463;BMP180;59266;52.608;13.260;2023-05-02T05:54:01;101260.00;;;12.30
71463;BMP180;59266;52.608;13.260;2023-05-02T05:56:28;101270.00;;;12.40
71463;BMP180;59266;52.608;13.260;2023-05-02T05:58:54;101266.00;;;13.00
71463;BMP180;59266;52.608;13.260;2023-05-02T06:01:21;101267.00;;;13.90
71463;BMP180;59266;52.608;13.260;2023-05-02T06:03:49;101270.00;;;14.80
71463;BMP180;59266;52.608;13.260;2023-05-02T06:06:16;101284.00;;;15.40
71463;BMP180;59266;52.608;13.260;2023-05-02T06:08:43;101282.00;;;15.30
71463;BMP180;59266;52.608;13.260;2023-05-02T06:11:09;101296.00;;;14.60
71463;BMP180;59266;52.608;13.260;2023-05-02T06:13:38;101295.00;;;14.20
71463;BMP180;59266;52.608;13.260;2023-05-02T06:16:05;101283.00;;;15.10
71463;BMP180;59266;52.608;13.260;2023-05-02T06:18:35;101305.00;;;15.50
71463;BMP180;59266;52.608;13.260;2023-05-02T06:21:05;101306.00;;;15.80
71463;BMP180;59266;52.608;13.260;2023-05-02T06:23:32;101312.00;;;16.10
71463;BMP180;59266;52.608;13.260;2023-05-02T06:26:00;101307.00;;;16.30
71463;BMP180;59266;52.608;13.260;2023-05-02T06:28:27;101313.00;;;17.40
71463;BMP180;59266;52.608;13.260;2023-05-02T06:33:25;101322.00;;;18.20
71463;BMP180;59266;52.608;13.260;2023-05-02T06:35:52;101326.00;;;17.70
71463;BMP180;59266;52.608;13.260;2023-05-02T06:38:19;101333.00;;;19.90
71463;BMP180;59266;52.608;13.260;2023-05-02T06:40:46;101334.00;;;21.30
71463;BMP180;59266;52.608;13.260;2023-05-02T06:43:13;101337.00;;;20.80
71463;BMP180;59266;52.608;13.260;2023-05-02T06:45:40;101337.00;;;21.40
71463;BMP180;59266;52.608;13.260;2023-05-02T06:48:07;101344.00;;;22.80
71463;BMP180;59266;52.608;13.260;2023-05-02T06:50:34;101350.00;;;23.50
71463;BMP180;59266;52.608;13.260;2023-05-02T06:53:05;101367.00;;;25.40
71463;BMP180;59266;52.608;13.260;2023-05-02T06:55:36;101357.00;;;21.80
71463;BMP180;59266;52.608;13.260;2023-05-02T06:58:04;101384.00;;;22.50
71463;BMP180;59266;52.608;13.260;2023-05-02T07:00:31;101384.00;;;22.20
71463;BMP180;59266;52.608;13.260;2023-05-02T07:02:58;101359.00;;;21.90
71463;BMP180;59266;52.608;13.260;2023-05-02T07:05:26;101365.00;;;22.90
71463;BMP180;59266;52.608;13.260;2023-05-02T07:07:52;101365.00;;;21.80
71463;BMP180;59266;52.608;13.260;2023-05-02T07:10:21;101373.00;;;22.90
71463;BMP180;59266;52.608;13.260;2023-05-02T07:12:47;101360.00;;;20.60
71463;BMP180;59266;52.608;13.260;2023-05-02T07:15:16;101373.00;;;21.80
71463;BMP180;59266;52.608;13.260;2023-05-02T07:17:46;101387.00;;;22.80
71463;BMP180;59266;52.608;13.260;2023-05-02T07:20:13;101396.00;;;24.50
71463;BMP180;59266;52.608;13.260;2023-05-02T07:22:43;101386.00;;;24.30
71463;BMP180;59266;52.608;13.260;2023-05-02T07:25:09;101405.00;;;24.50
71463;BMP180;59266;52.608;13.260;2023-05-02T07:27:36;101389.00;;;24.10
71463;BMP180;59266;52.608;13.260;2023-05-02T07:30:04;101384.00;;;26.30
71463;BMP180;59266;52.608;13.260;2023-05-02T07:32:30;101382.00;;;26.00
71463;BMP180;59266;52.608;13.260;2023-05-02T07:34:57;101422.00;;;25.00
71463;BMP180;59266;52.608;13.260;2023-05-02T07:37:24;101424.00;;;21.10
71463;BMP180;59266;52.608;13.260;2023-05-02T07:39:52;101425.00;;;22.90
71463;BMP180;59266;52.608;13.260;2023-05-02T07:42:19;101436.00;;;21.00
71463;BMP180;59266;52.608;13.260;2023-05-02T07:44:47;101439.00;;;19.90
71463;BMP180;59266;52.608;13.260;2023-05-02T07:47:15;101449.00;;;19.10
71463;BMP180;59266;52.608;13.260;2023-05-02T07:49:41;101440.00;;;18.80
71463;BMP180;59266;52.608;13.260;2023-05-02T07:52:09;101446.00;;;18.90
71463;BMP180;59266;52.608;13.260;2023-05-02T07:54:37;101445.00;;;18.80
71463;BMP180;59266;52.608;13.260;2023-05-02T07:57:04;101450.00;;;18.40
71463;BMP180;59266;52.608;13.260;2023-05-02T07:59:34;101458.00;;;18.50
71463;BMP180;59266;52.608;13.260;2023-05-02T08:02:02;101456.00;;;18.10
71463;BMP180;59266;52.608;13.260;2023-05-02T08:04:29;101443.00;;;18.10
71463;BMP180;59266;52.608;13.260;2023-05-02T08:06:55;101463.00;;;18.10
71463;BMP180;59266;52.608;13.260;2023-05-02T08:09:24;101476.00;;;17.10
71463;BMP180;59266;52.608;13.260;2023-05-02T08:11:55;101488.00;;;17.00
71463;BMP180;59266;52.608;13.260;2023-05-02T08:14:22;101483.00;;;16.60
71463;BMP180;59266;52.608;13.260;2023-05-02T08:16:48;101491.00;;;16.60
71463;BMP180;59266;52.608;13.260;2023-05-02T08:19:17;101488.00;;;16.40
71463;BMP180;59266;52.608;13.260;2023-05-02T08:21:45;101494.00;;;16.00
71463;BMP180;59266;52.608;13.260;2023-05-02T08:24:12;101503.00;;;15.50
71463;BMP180;59266;52.608;13.260;2023-05-02T08:26:40;101496.00;;;15.80
71463;BMP180;59266;52.608;13.260;2023-05-02T08:29:07;101503.00;;;15.30
71463;BMP180;59266;52.608;13.260;2023-05-02T08:31:34;101505.00;;;15.80
71463;BMP180;59266;52.608;13.260;2023-05-02T08:34:03;101514.00;;;15.90
71463;BMP180;59266;52.608;13.260;2023-05-02T08:36:33;101512.00;;;15.80
71463;BMP180;59266;52.608;13.260;2023-05-02T08:39:05;101515.00;;;15.90
71463;BMP180;59266;52.608;13.260;2023-05-02T08:41:37;101507.00;;;15.80
71463;BMP180;59266;52.608;13.260;2023-05-02T08:44:05;101508.00;;;15.90
71463;BMP180;59266;52.608;13.260;2023-05-02T08:46:34;101521.00;;;16.40
71463;BMP180;59266;52.608;13.260;2023-05-02T08:49:02;101524.00;;;16.10
71463;BMP180;59266;52.608;13.260;2023-05-02T08:51:30;101527.00;;;16.00
71463;BMP180;59266;52.608;13.260;2023-05-02T08:54:02;101540.00;;;15.80
71463;BMP180;59266;52.608;13.260;2023-05-02T08:56:29;101536.00;;;15.10
71463;BMP180;59266;52.608;13.260;2023-05-02T08:58:56;101545.00;;;15.00
71463;BMP180;59266;52.608;13.260;2023-05-02T09:01:27;101561.00;;;14.60
71463;BMP180;59266;52.608;13.260;2023-05-02T09:03:55;101558.00;;;14.50
71463;BMP180;59266;52.608;13.260;2023-05-02T09:06:25;101556.00;;;14.40
71463;BMP180;59266;52.608;13.260;2023-05-02T09:08:52;101553.00;;;14.50
71463;BMP180;59266;52.608;13.260;2023-05-02T09:11:19;101582.00;;;14.60
71463;BMP180;59266;52.608;13.260;2023-05-02T09:13:48;101567.00;;;14.70
71463;BMP180;59266;52.608;13.260;2023-05-02T09:16:20;101576.00;;;14.90
71463;BMP180;59266;52.608;13.260;2023-05-02T09:18:52;101589.00;;;14.80
71463;BMP180;59266;52.608;13.260;2023-05-02T09:21:44;101587.00;;;14.90
71463;BMP180;59266;52.608;13.260;2023-05-02T09:24:16;101587.00;;;15.10
71463;BMP180;59266;52.608;13.260;2023-05-02T09:26:59;101582.00;;;14.70
71463;BMP180;59266;52.608;13.260;2023-05-02T09:29:27;101582.00;;;15.00
71463;BMP180;59266;52.608;13.260;2023-05-02T09:31:56;101582.00;;;15.10
71463;BMP180;59266;52.608;13.260;2023-05-02T09:34:23;101587.00;;;15.00
71463;BMP180;59266;52.608;13.260;2023-05-02T09:36:52;101594.00;;;14.90
71463;BMP180;59266;52.608;13.260;2023-05-02T09:39:26;101599.00;;;15.40
71463;BMP180;59266;52.608;13.260;2023-05-02T09:41:57;101605.00;;;15.80
71463;BMP180;59266;52.608;13.260;2023-05-02T09:44:25;101608.00;;;15.20
71463;BMP180;59266;52.608;13.260;2023-05-02T09:46:54;101618.00;;;14.70
71463;BMP180;59266;52.608;13.260;2023-05-02T09:49:44;101627.00;;;13.90
71463;BMP180;59266;52.608;13.260;2023-05-02T09:52:13;101613.00;;;14.10
71463;BMP180;59266;52.608;13.260;2023-05-02T09:54:43;101617.00;;;14.30
71463;BMP180;59266;52.608;13.260;2023-05-02T09:57:11;101628.00;;;14.60
71463;BMP180;59266;52.608;13.260;2023-05-02T09:59:39;101626.00;;;14.90
71463;BMP180;59266;52.608;13.260;2023-05-02T10:02:07;101633.00;;;14.60
71463;BMP180;59266;52.608;13.260;2023-05-02T10:04:37;101645.00;;;14.30
71463;BMP180;59266;52.608;13.260;2023-05-02T10:07:04;101639.00;;;14.30
71463;BMP180;59266;52.608;13.260;2023-05-02T10:09:34;101649.00;;;14.20
71463;BMP180;59266;52.608;13.260;2023-05-02T10:12:02;101655.00;;;14.40
71463;BMP180;59266;52.608;13.260;2023-05-02T10:14:38;101655.00;;;14.20
71463;BMP180;59266;52.608;13.260;2023-05-02T10:17:11;101669.00;;;13.80
71463;BMP180;59266;52.608;13.260;2023-05-02T10:19:47;101671.00;;;13.70
71463;BMP180;59266;52.608;13.260;2023-05-02T10:22:18;101681.00;;;13.40
71463;BMP180;59266;52.608;13.260;2023-05-02T10:24:47;101682.00;;;13.10
71463;BMP180;59266;52.608;13.260;2023-05-02T10:27:15;101698.00;;;13.10
71463;BMP180;59266;52.608;13.260;2023-05-02T10:29:43;101699.00;;;13.20
71463;BMP180;59266;52.608;13.260;2023-05-02T10:32:17;101703.00;;;12.90
71463;BMP180;59266;52.608;13.260;2023-05-02T10:34:46;101708.00;;;12.70
71463;BMP180;59266;52.608;13.260;2023-05-02T10:37:14;101718.00;;;12.60
71463;BMP180;59266;52.608;13.260;2023-05-02T10:39:41;101724.00;;;12.20
71463;BMP180;59266;52.608;13.260;2023-05-02T10:42:08;101719.00;;;12.10
71463;BMP180;59266;52.608;13.260;2023-05-02T10:44:38;101723.00;;;12.20
71463;BMP180;59266;52.608;13.260;2023-05-02T10:47:22;101733.00;;;12.30
71463;BMP180;59266;52.608;13.260;2023-05-02T10:50:01;101746.00;;;12.30
71463;BMP180;59266;52.608;13.260;2023-05-02T10:55:24;101740.00;;;12.70
71463;BMP180;59266;52.608;13.260;2023-05-02T11:00:28;101739.00;;;13.50
71463;BMP180;59266;52.608;13.260;2023-05-02T11:02:56;101736.00;;;13.60
71463;BMP180;59266;52.608;13.260;2023-05-02T11:05:25;101732.00;;;13.40
71463;BMP180;59266;52.608;13.260;2023-05-02T11:10:47;101735.00;;;13.80
71463;BMP180;59266;52.608;13.260;2023-05-02T11:13:14;101738.00;;;13.90
71463;BMP180;59266;52.608;13.260;2023-05-02T11:18:11;101746.00;;;13.30
71463;BMP180;59266;52.608;13.260;2023-05-02T11:20:42;101736.00;;;13.40
71463;BMP180;59266;52.608;13.260;2023-05-02T11:25:56;101745.00;;;13.70
71463;BMP180;59266;52.608;13.260;2023-05-02T11:28:44;101743.00;;;14.00
71463;BMP180;59266;52.608;13.260;2023-05-02T11:33:59;101753.00;;;14.40
71463;BMP180;59266;52.608;13.260;2023-05-02T11:36:32;101751.00;;;14.50
71463;BMP180;59266;52.608;13.260;2023-05-02T11:39:01;101751.00;;;14.30
71463;BMP180;59266;52.608;13.260;2023-05-02T11:41:41;101755.00;;;14.10
71463;BMP180;59266;52.608;13.260;2023-05-02T11:44:08;101755.00;;;13.70
71463;BMP180;59266;52.608;13.260;2023-05-02T11:46:39;101768.00;;;13.80
71463;BMP180;59266;52.608;13.260;2023-05-02T11:49:07;101762.00;;;13.50
71463;BMP180;59266;52.608;13.260;2023-05-02T11:51:35;101768.00;;;13.80
71463;BMP180;59266;52.608;13.260;2023-05-02T11:54:02;101767.00;;;13.90
71463;BMP180;59266;52.608;13.260;2023-05-02T11:56:29;101768.00;;;13.90
71463;BMP180;59266;52.608;13.260;2023-05-02T11:58:58;101772.00;;;13.90
71463;BMP180;59266;52.608;13.260;2023-05-02T12:01:25;101780.00;;;14.10
71463;BMP180;59266;52.608;13.260;2023-05-02T12:04:03;101772.00;;;14.10
71463;BMP180;59266;52.608;13.260;2023-05-02T12:06:32;101777.00;;;14.50
71463;BMP180;59266;52.608;13.260;2023-05-02T12:09:12;101789.00;;;14.50
71463;BMP180;59266;52.608;13.260;2023-05-02T12:11:40;101783.00;;;14.80
71463;BMP180;59266;52.608;13.260;2023-05-02T12:14:07;101793.00;;;13.80
71463;BMP180;59266;52.608;13.260;2023-05-02T12:16:35;101808.00;;;13.80
71463;BMP180;59266;52.608;13.260;2023-05-02T12:19:02;101811.00;;;13.90
71463;BMP180;59266;52.608;13.260;2023-05-02T12:21:31;101806.00;;;13.90
71463;BMP180;59266;52.608;13.260;2023-05-02T12:24:01;101803.00;;;13.80
71463;BMP180;59266;52.608;13.260;2023-05-02T12:26:28;101809.00;;;14.20
71463;BMP180;59266;52.608;13.260;2023-05-02T12:28:57;101811.00;;;14.50
71463;BMP180;59266;52.608;13.260;2023-05-02T12:31:25;101810.00;;;14.50
71463;BMP180;59266;52.608;13.260;2023-05-02T12:33:53;101825.00;;;14.30
71463;BMP180;59266;52.608;13.260;2023-05-02T12:36:24;101808.00;;;14.80
71463;BMP180;59266;52.608;13.260;2023-05-02T12:38:56;101822.00;;;15.10
71463;BMP180;59266;52.608;13.260;2023-05-02T12:41:33;101823.00;;;14.50
71463;BMP180;59266;52.608;13.260;2023-05-02T12:44:00;101803.00;;;14.90
71463;BMP180;59266;52.608;13.260;2023-05-02T12:46:31;101812.00;;;15.50
71463;BMP180;59266;52.608;13.260;2023-05-02T12:49:06;101809.00;;;15.40
71463;BMP180;59266;52.608;13.260;2023-05-02T12:51:38;101820.00;;;15.70
71463;BMP180;59266;52.608;13.260;2023-05-02T12:54:06;101818.00;;;14.80
71463;BMP180;59266;52.608;13.260;2023-05-02T12:56:40;101810.00;;;15.00
71463;BMP180;59266;52.608;13.260;2023-05-02T12:59:23;101827.00;;;15.20
71463;BMP180;59266;52.608;13.260;2023-05-02T13:01:52;101803.00;;;15.40
71463;BMP180;59266;52.608;13.260;2023-05-02T13:04:18;101838.00;;;15.30
71463;BMP180;59266;52.608;13.260;2023-05-02T13:06:46;101809.00;;;15.10
71463;BMP180;59266;52.608;13.260;2023-05-02T13:09:13;101844.00;;;14.30
71463;BMP180;59266;52.608;13.260;2023-05-02T13:11:42;101801.00;;;14.50
71463;BMP180;59266;52.608;13.260;2023-05-02T13:14:11;101828.00;;;15.50
71463;BMP180;59266;52.608;13.260;2023-05-02T13:16:38;101839.00;;;15.10
71463;BMP180;59266;52.608;13.260;2023-05-02T13:19:05;101833.00;;;15.20
71463;BMP180;59266;52.608;13.260;2023-05-02T13:21:33;101847.00;;;14.80
71463;BMP180;59266;52.608;13.260;2023-05-02T13:24:01;101855.00;;;15.00
71463;BMP180;59266;52.608;13.260;2023-05-02T13:26:29;101860.00;;;14.80
71463;BMP180;59266;52.608;13.260;2023-05-02T13:28:56;101865.00;;;14.70
71463;BMP180;59266;52.608;13.260;2023-05-02T13:31:22;101871.00;;;14.80
71463;BMP180;59266;52.608;13.260;2023-05-02T13:33:49;101856.00;;;14.80
71463;BMP180;59266;52.608;13.260;2023-05-02T13:36:16;101874.00;;;14.60
71463;BMP180;59266;52.608;13.260;2023-05-02T13:38:45;101869.00;;;14.00
71463;BMP180;59266;52.608;13.260;2023-05-02T13:41:15;101880.00;;;14.30
71463;BMP180;59266;52.608;13.260;2023-05-02T13:43:42;101884.00;;;14.30
71463;BMP180;59266;52.608;13.260;2023-05-02T13:46:10;101887.00;;;14.90
71463;BMP180;59266;52.608;13.260;2023-05-02T13:48:36;101885.00;;;15.00
71463;BMP180;59266;52.608;13.260;2023-05-02T13:51:04;101886.00;;;14.90
71463;BMP180;59266;52.608;13.260;2023-05-02T13:53:34;101890.00;;;14.90
71463;BMP180;59266;52.608;13.260;2023-05-02T13:56:02;101898.00;;;14.70
71463;BMP180;59266;52.608;13.260;2023-05-02T13:58:30;101897.00;;;14.30
71463;BMP180;59266;52.608;13.260;2023-05-02T14:00:56;101904.00;;;13.90
71463;BMP180;59266;52.608;13.260;2023-05-02T14:03:23;101902.00;;;14.10
71463;BMP180;59266;52.608;13.260;2023-05-02T14:05:50;101913.00;;;14.00
71463;BMP180;59266;52.608;13.260;2023-05-02T14:08:17;101911.00;;;13.70
71463;BMP180;59266;52.608;13.260;2023-05-02T14:10:44;101917.00;;;13.70
71463;BMP180;59266;52.608;13.260;2023-05-02T14:13:11;101914.00;;;13.40
71463;BMP180;59266;52.608;13.260;2023-05-02T14:15:37;101915.00;;;13.20
71463;BMP180;59266;52.608;13.260;2023-05-02T14:18:06;101922.00;;;13.40
71463;BMP180;59266;52.608;13.260;2023-05-02T14:20:34;101934.00;;;13.60
71463;BMP180;59266;52.608;13.260;2023-05-02T14:23:02;101938.00;;;13.60
71463;BMP180;59266;52.608;13.260;2023-05-02T14:25:31;101947.00;;;13.10
71463;BMP180;59266;52.608;13.260;2023-05-02T14:27:57;101949.00;;;13.30
71463;BMP180;59266;52.608;13.260;2023-05-02T14:30:25;101954.00;;;12.70
71463;BMP180;59266;52.608;13.260;2023-05-02T14:32:52;101944.00;;;12.60